sensor_id;sensor_type;location;lat;lon;timestamp;pressure;altitude;pressure_sealevel;temperature
49154;BMP280;49455;52.252;9.124;2023-02-15T00:02:41;100933.25;;;5.72
49154;BMP280;49455;52.252;9.124;2023-02-15T00:07:41;100917.88;;;5.72
49154;BMP280;49455;52.252;9.124;2023-02-15T00:12:42;100923.25;;;5.64
49154;BMP280;49455;52.252;9.124;2023-02-15T00:17:42;100914.56;;;5.62
49154;BMP280;49455;52.252;9.124;2023-02-15T00:22:43;100914.56;;;5.62
49154;BMP280;49455;52.252;9.124;2023-02-15T00:27:43;100905.69;;;5.70
49154;BMP280;49455;52.252;9.124;2023-02-15T00:32:43;100900.19;;;5.64
49154;BMP280;49455;52.252;9.124;2023-02-15T00:37:45;100906.69;;;5.59
49154;BMP280;49455;52.252;9.124;2023-02-15T00:42:46;100895.81;;;5.63
49154;BMP280;49455;52.252;9.124;2023-02-15T00:47:46;100889.31;;;5.68
49154;BMP280;49455;52.252;9.124;2023-02-15T00:52:46;100895.25;;;5.67
49154;BMP280;49455;52.252;9.124;2023-02-15T00:57:47;100889.13;;;5.65
49154;BMP280;49455;52.252;9.124;2023-02-15T01:02:47;100882.91;;;5.61
49154;BMP280;49455;52.252;9.124;2023-02-15T01:07:48;100874.53;;;5.64
49154;BMP280;49455;52.252;9.124;2023-02-15T01:12:50;100881.03;;;5.59
49154;BMP280;49455;52.252;9.124;2023-02-15T01:17:51;100883.69;;;5.47
49154;BMP280;49455;52.252;9.124;2023-02-15T01:22:52;100880.44;;;5.37
49154;BMP280;49455;52.252;9.124;2023-02-15T01:27:53;100872.34;;;5.31
49154;BMP280;49455;52.252;9.124;2023-02-15T01:32:53;100869.16;;;5.22
49154;BMP280;49455;52.252;9.124;2023-02-15T01:37:55;100859.31;;;5.15
49154;BMP280;49455;52.252;9.124;2023-02-15T01:42:55;100860.50;;;5.20
49154;BMP280;49455;52.252;9.124;2023-02-15T01:58:53;100839.63;;;5.40
49154;BMP280;49455;52.252;9.124;2023-02-15T02:04:05;100846.13;;;5.35
49154;BMP280;49455;52.252;9.124;2023-02-15T02:09:08;100839.22;;;5.34
49154;BMP280;49455;52.252;9.124;2023-02-15T02:14:09;100837.34;;;5.32
49154;BMP280;49455;52.252;9.124;2023-02-15T02:30:10;100825.03;;;5.39
49154;BMP280;49455;52.252;9.124;2023-02-15T02:35:43;100824.25;;;5.40
49154;BMP280;49455;52.252;9.124;2023-02-15T02:46:26;100824.44;;;5.17
49154;BMP280;49455;52.252;9.124;2023-02-15T02:51:29;100821.56;;;5.13
49154;BMP280;49455;52.252;9.124;2023-02-15T02:56:52;100805.81;;;5.07
49154;BMP280;49455;52.252;9.124;2023-02-15T03:07:27;100797.03;;;5.16
49154;BMP280;49455;52.252;9.124;2023-02-15T03:12:37;100788.16;;;5.11
49154;BMP280;49455;52.252;9.124;2023-02-15T03:17:43;100796.25;;;5.05
49154;BMP280;49455;52.252;9.124;2023-02-15T03:23:14;100788.25;;;5.00
49154;BMP280;49455;52.252;9.124;2023-02-15T03:28:25;100784.28;;;4.92
49154;BMP280;49455;52.252;9.124;2023-02-15T03:33:28;100794.53;;;4.80
49154;BMP280;49455;52.252;9.124;2023-02-15T03:38:36;100777.88;;;4.60
49154;BMP280;49455;52.252;9.124;2023-02-15T03:43:54;100773.91;;;4.65
49154;BMP280;49455;52.252;9.124;2023-02-15T03:49:00;100779.03;;;4.65
49154;BMP280;49455;52.252;9.124;2023-02-15T03:54:08;100763.19;;;4.58
49154;BMP280;49455;52.252;9.124;2023-02-15T03:59:09;100764.81;;;4.45
49154;BMP280;49455;52.252;9.124;2023-02-15T04:04:20;100765.59;;;4.44
49154;BMP280;49455;52.252;9.124;2023-02-15T04:09:22;100767.84;;;4.39
49154;BMP280;49455;52.252;9.124;2023-02-15T04:14:22;100777.22;;;4.39
49154;BMP280;49455;52.252;9.124;2023-02-15T04:19:23;100772.28;;;4.42
49154;BMP280;49455;52.252;9.124;2023-02-15T04:24:23;100762.25;;;4.45
49154;BMP280;49455;52.252;9.124;2023-02-15T04:29:25;100761.25;;;4.43
49154;BMP280;49455;52.252;9.124;2023-02-15T04:34:25;100756.81;;;4.40
49154;BMP280;49455;52.252;9.124;2023-02-15T04:39:26;100748.16;;;4.38
49154;BMP280;49455;52.252;9.124;2023-02-15T04:44:26;100752.09;;;4.46
49154;BMP280;49455;52.252;9.124;2023-02-15T04:49:27;100745.63;;;4.51
49154;BMP280;49455;52.252;9.124;2023-02-15T04:54:27;100737.59;;;4.58
49154;BMP280;49455;52.252;9.124;2023-02-15T04:59:27;100737.06;;;4.51
49154;BMP280;49455;52.252;9.124;2023-02-15T05:04:28;100725.63;;;4.46
49154;BMP280;49455;52.252;9.124;2023-02-15T05:09:28;100724.97;;;4.48
49154;BMP280;49455;52.252;9.124;2023-02-15T05:14:29;100717.94;;;4.33
49154;BMP280;49455;52.252;9.124;2023-02-15T05:19:29;100717.59;;;4.16
49154;BMP280;49455;52.252;9.124;2023-02-15T05:24:29;100721.22;;;4.19
49154;BMP280;49455;52.252;9.124;2023-02-15T05:29:30;100721.63;;;4.25
49154;BMP280;49455;52.252;9.124;2023-02-15T05:34:30;100726.47;;;3.96
49154;BMP280;49455;52.252;9.124;2023-02-15T05:39:31;100719.84;;;3.63
49154;BMP280;49455;52.252;9.124;2023-02-15T05:44:31;100733.88;;;3.45
49154;BMP280;49455;52.252;9.124;2023-02-15T05:49:31;100726.66;;;3.40
49154;BMP280;49455;52.252;9.124;2023-02-15T05:54:32;100718.75;;;3.48
49154;BMP280;49455;52.252;9.124;2023-02-15T05:59:32;100708.19;;;3.55
49154;BMP280;49455;52.252;9.124;2023-02-15T06:04:33;100712.47;;;3.67
49154;BMP280;49455;52.252;9.124;2023-02-15T06:09:33;100722.69;;;3.67
49154;BMP280;49455;52.252;9.124;2023-02-15T06:14:33;100715.34;;;3.72
49154;BMP280;49455;52.252;9.124;2023-02-15T06:19:34;100712.00;;;3.73
49154;BMP280;49455;52.252;9.124;2023-02-15T06:24:34;100721.50;;;3.51
49154;BMP280;49455;52.252;9.124;2023-02-15T06:29:35;100720.88;;;3.42
49154;BMP280;49455;52.252;9.124;2023-02-15T06:34:35;100715.44;;;3.38
49154;BMP280;49455;52.252;9.124;2023-02-15T06:39:36;100717.34;;;3.29
49154;BMP280;49455;52.252;9.124;2023-02-15T06:44:36;100717.72;;;3.11
49154;BMP280;49455;52.252;9.124;2023-02-15T06:49:37;100720.94;;;2.97
49154;BMP280;49455;52.252;9.124;2023-02-15T06:54:37;100711.31;;;2.93
49154;BMP280;49455;52.252;9.124;2023-02-15T06:59:37;100700.22;;;2.93
49154;BMP280;49455;52.252;9.124;2023-02-15T07:04:38;100699.22;;;2.91
49154;BMP280;49455;52.252;9.124;2023-02-15T07:09:39;100710.28;;;2.91
49154;BMP280;49455;52.252;9.124;2023-02-15T07:14:39;100710.88;;;2.87
49154;BMP280;49455;52.252;9.124;2023-02-15T07:19:39;100699.50;;;2.95
49154;BMP280;49455;52.252;9.124;2023-02-15T07:24:40;100704.41;;;3.15
49154;BMP280;49455;52.252;9.124;2023-02-15T07:29:40;100705.56;;;3.42
49154;BMP280;49455;52.252;9.124;2023-02-15T07:34:43;100699.59;;;3.31
49154;BMP280;49455;52.252;9.124;2023-02-15T07:39:44;100698.06;;;3.10
49154;BMP280;49455;52.252;9.124;2023-02-15T07:44:44;100694.41;;;3.06
49154;BMP280;49455;52.252;9.124;2023-02-15T07:49:44;100700.16;;;3.27
49154;BMP280;49455;52.252;9.124;2023-02-15T07:54:45;100694.69;;;3.22
49154;BMP280;49455;52.252;9.124;2023-02-15T07:59:45;100690.41;;;3.10
49154;BMP280;49455;52.252;9.124;2023-02-15T08:04:46;100678.00;;;2.92
49154;BMP280;49455;52.252;9.124;2023-02-15T08:09:46;100669.25;;;2.88
49154;BMP280;49455;52.252;9.124;2023-02-15T08:14:46;100668.75;;;3.05
49154;BMP280;49455;52.252;9.124;2023-02-15T08:19:47;100663.63;;;3.16
49154;BMP280;49455;52.252;9.124;2023-02-15T08:24:47;100653.53;;;3.18
49154;BMP280;49455;52.252;9.124;2023-02-15T08:29:47;100653.41;;;3.16
49154;BMP280;49455;52.252;9.124;2023-02-15T08:34:48;100642.31;;;3.16
49154;BMP280;49455;52.252;9.124;2023-02-15T08:39:49;100654.31;;;3.17
49154;BMP280;49455;52.252;9.124;2023-02-15T08:44:49;100655.09;;;3.16
49154;BMP280;49455;52.252;9.124;2023-02-15T08:49:50;100638.44;;;3.21
49154;BMP280;49455;52.252;9.124;2023-02-15T08:54:50;100651.06;;;3.31
49154;BMP280;49455;52.252;9.124;2023-02-15T08:59:50;100643.50;;;3.32
49154;BMP280;49455;52.252;9.124;2023-02-15T09:04:51;100638.44;;;3.21
49154;BMP280;49455;52.252;9.124;2023-02-15T09:09:51;100645.03;;;3.41
49154;BMP280;49455;52.252;9.124;2023-02-15T09:14:51;100642.00;;;3.23
49154;BMP280;49455;52.252;9.124;2023-02-15T09:19:52;100645.25;;;3.44
49154;BMP280;49455;52.252;9.124;2023-02-15T09:24:52;100648.63;;;3.56
49154;BMP280;49455;52.252;9.124;2023-02-15T09:29:52;100642.91;;;3.95
49154;BMP280;49455;52.252;9.124;2023-02-15T09:34:53;100646.34;;;4.09
49154;BMP280;49455;52.252;9.124;2023-02-15T09:39:53;100630.09;;;3.95
49154;BMP280;49455;52.252;9.124;2023-02-15T09:50:18;100641.53;;;4.13
49154;BMP280;49455;52.252;9.124;2023-02-15T10:22:15;100625.47;;;4.52
49154;BMP280;49455;52.252;9.124;2023-02-15T10:27:20;100616.59;;;4.73
49154;BMP280;49455;52.252;9.124;2023-02-15T10:37:38;100604.19;;;5.46
49154;BMP280;49455;52.252;9.124;2023-02-15T11:09:18;100599.72;;;6.69
49154;BMP280;49455;52.252;9.124;2023-02-15T11:14:57;100592.06;;;6.70
49154;BMP280;49455;52.252;9.124;2023-02-15T11:20:16;100591.81;;;6.66
49154;BMP280;49455;52.252;9.124;2023-02-15T11:25:30;100583.63;;;7.33
49154;BMP280;49455;52.252;9.124;2023-02-15T11:30:42;100576.81;;;8.14
49154;BMP280;49455;52.252;9.124;2023-02-15T11:35:50;100569.22;;;8.49
49154;BMP280;49455;52.252;9.124;2023-02-15T11:40:54;100571.28;;;8.74
49154;BMP280;49455;52.252;9.124;2023-02-15T11:45:56;100570.13;;;8.67
49154;BMP280;49455;52.252;9.124;2023-02-15T11:50:56;100568.78;;;8.75
49154;BMP280;49455;52.252;9.124;2023-02-15T11:55:57;100565.09;;;8.36
49154;BMP280;49455;52.252;9.124;2023-02-15T12:06:51;100564.06;;;8.49
49154;BMP280;49455;52.252;9.124;2023-02-15T12:11:52;100551.19;;;8.49
49154;BMP280;49455;52.252;9.124;2023-02-15T12:16:55;100543.84;;;8.93
49154;BMP280;49455;52.252;9.124;2023-02-15T12:21:57;100558.66;;;9.33
49154;BMP280;49455;52.252;9.124;2023-02-15T12:27:02;100555.97;;;9.48
49154;BMP280;49455;52.252;9.124;2023-02-15T12:32:03;100534.13;;;9.98
49154;BMP280;49455;52.252;9.124;2023-02-15T12:37:09;100521.09;;;9.95
49154;BMP280;49455;52.252;9.124;2023-02-15T12:42:15;100519.63;;;10.42
49154;BMP280;49455;52.252;9.124;2023-02-15T12:57:27;100501.75;;;10.46
49154;BMP280;49455;52.252;9.124;2023-02-15T13:02:31;100507.19;;;10.32
49154;BMP280;49455;52.252;9.124;2023-02-15T13:07:36;100494.88;;;10.68
49154;BMP280;49455;52.252;9.124;2023-02-15T13:12:37;100487.03;;;10.65
49154;BMP280;49455;52.252;9.124;2023-02-15T13:17:38;100494.69;;;10.86
49154;BMP280;49455;52.252;9.124;2023-02-15T13:22:41;100481.22;;;10.51
49154;BMP280;49455;52.252;9.124;2023-02-15T13:27:44;100476.38;;;10.58
49154;BMP280;49455;52.252;9.124;2023-02-15T13:32:45;100466.03;;;10.58
49154;BMP280;49455;52.252;9.124;2023-02-15T13:48:45;100451.16;;;10.31
49154;BMP280;49455;52.252;9.124;2023-02-15T14:05:21;100436.72;;;10.57
49154;BMP280;49455;52.252;9.124;2023-02-15T14:10:43;100440.03;;;10.54
49154;BMP280;49455;52.252;9.124;2023-02-15T14:21:46;100426.97;;;10.72
49154;BMP280;49455;52.252;9.124;2023-02-15T14:31:55;100421.03;;;10.75
49154;BMP280;49455;52.252;9.124;2023-02-15T14:36:57;100427.81;;;10.71
49154;BMP280;49455;52.252;9.124;2023-02-15T14:42:12;100413.03;;;10.46
49154;BMP280;49455;52.252;9.124;2023-02-15T14:47:22;100415.97;;;10.34
49154;BMP280;49455;52.252;9.124;2023-02-15T14:52:25;100426.38;;;10.36
49154;BMP280;49455;52.252;9.124;2023-02-15T14:57:27;100412.75;;;10.61
49154;BMP280;49455;52.252;9.124;2023-02-15T15:02:48;100409.53;;;10.67
49154;BMP280;49455;52.252;9.124;2023-02-15T15:07:52;100407.09;;;10.70
49154;BMP280;49455;52.252;9.124;2023-02-15T15:12:54;100409.13;;;10.13
49154;BMP280;49455;52.252;9.124;2023-02-15T15:18:09;100414.84;;;9.86
49154;BMP280;49455;52.252;9.124;2023-02-15T15:33:50;100414.63;;;9.23
49154;BMP280;49455;52.252;9.124;2023-02-15T15:39:12;100398.78;;;8.95
49154;BMP280;49455;52.252;9.124;2023-02-15T15:49:59;100399.47;;;8.73
49154;BMP280;49455;52.252;9.124;2023-02-15T15:55:07;100388.72;;;8.64
49154;BMP280;49455;52.252;9.124;2023-02-15T16:00:36;100376.00;;;8.48
49154;BMP280;49455;52.252;9.124;2023-02-15T16:05:38;100380.72;;;8.58
49154;BMP280;49455;52.252;9.124;2023-02-15T16:10:40;100376.25;;;8.54
49154;BMP280;49455;52.252;9.124;2023-02-15T16:15:45;100379.78;;;8.56
49154;BMP280;49455;52.252;9.124;2023-02-15T16:20:55;100364.84;;;8.30
49154;BMP280;49455;52.252;9.124;2023-02-15T16:31:34;100372.56;;;7.96
49154;BMP280;49455;52.252;9.124;2023-02-15T16:36:34;100378.28;;;7.90
49154;BMP280;49455;52.252;9.124;2023-02-15T16:41:35;100371.16;;;7.85
49154;BMP280;49455;52.252;9.124;2023-02-15T16:46:40;100365.09;;;7.83
49154;BMP280;49455;52.252;9.124;2023-02-15T16:51:43;100360.59;;;7.79
49154;BMP280;49455;52.252;9.124;2023-02-15T16:56:44;100374.41;;;7.81
49154;BMP280;49455;52.252;9.124;2023-02-15T17:01:44;100373.00;;;7.70
49154;BMP280;49455;52.252;9.124;2023-02-15T17:06:58;100370.34;;;7.52
49154;BMP280;49455;52.252;9.124;2023-02-15T17:11:59;100370.69;;;7.42
49154;BMP280;49455;52.252;9.124;2023-02-15T17:17:06;100377.75;;;7.28
49154;BMP280;49455;52.252;9.124;2023-02-15T17:22:18;100382.59;;;7.07
49154;BMP280;49455;52.252;9.124;2023-02-15T17:27:26;100368.69;;;7.03
49154;BMP280;49455;52.252;9.124;2023-02-15T17:32:31;100364.94;;;6.97
49154;BMP280;49455;52.252;9.124;2023-02-15T17:42:38;100378.50;;;6.94
49154;BMP280;49455;52.252;9.124;2023-02-15T17:47:38;100370.97;;;6.82
49154;BMP280;49455;52.252;9.124;2023-02-15T17:52:39;100381.91;;;6.78
49154;BMP280;49455;52.252;9.124;2023-02-15T17:57:39;100371.22;;;6.70
49154;BMP280;49455;52.252;9.124;2023-02-15T18:02:40;100385.03;;;6.72
49154;BMP280;49455;52.252;9.124;2023-02-15T18:07:40;100371.88;;;6.66
49154;BMP280;49455;52.252;9.124;2023-02-15T18:12:41;100378.66;;;6.66
49154;BMP280;49455;52.252;9.124;2023-02-15T18:17:43;100381.09;;;6.63
49154;BMP280;49455;52.252;9.124;2023-02-15T18:22:45;100370.59;;;6.59
49154;BMP280;49455;52.252;9.124;2023-02-15T18:27:45;100364.72;;;6.45
49154;BMP280;49455;52.252;9.124;2023-02-15T18:32:47;100369.03;;;6.46
49154;BMP280;49455;52.252;9.124;2023-02-15T18:37:48;100360.88;;;6.53
49154;BMP280;49455;52.252;9.124;2023-02-15T18:42:49;100354.13;;;6.55
49154;BMP280;49455;52.252;9.124;2023-02-15T18:47:50;100351.66;;;6.57
49154;BMP280;49455;52.252;9.124;2023-02-15T18:52:50;100363.50;;;6.55
49154;BMP280;49455;52.252;9.124;2023-02-15T18:57:53;100353.47;;;6.43
49154;BMP280;49455;52.252;9.124;2023-02-15T19:02:55;100363.28;;;6.34
49154;BMP280;49455;52.252;9.124;2023-02-15T19:07:58;100364.69;;;6.30
49154;BMP280;49455;52.252;9.124;2023-02-15T19:12:58;100369.03;;;6.31
49154;BMP280;49455;52.252;9.124;2023-02-15T19:17:59;100373.81;;;6.25
49154;BMP280;49455;52.252;9.124;2023-02-15T19:23:00;100353.94;;;6.21
49154;BMP280;49455;52.252;9.124;2023-02-15T19:28:05;100359.31;;;6.25
49154;BMP280;49455;52.252;9.124;2023-02-15T19:33:17;100340.63;;;6.28
49154;BMP280;49455;52.252;9.124;2023-02-15T19:38:24;100354.28;;;6.27
49154;BMP280;49455;52.252;9.124;2023-02-15T19:43:25;100340.56;;;6.26
49154;BMP280;49455;52.252;9.124;2023-02-15T19:48:25;100349.69;;;6.21
49154;BMP280;49455;52.252;9.124;2023-02-15T19:53:27;100345.28;;;6.19
49154;BMP280;49455;52.252;9.124;2023-02-15T19:58:28;100351.50;;;6.08
49154;BMP280;49455;52.252;9.124;2023-02-15T20:03:28;100356.59;;;5.92
49154;BMP280;49455;52.252;9.124;2023-02-15T20:08:30;100359.63;;;5.85
49154;BMP280;49455;52.252;9.124;2023-02-15T20:13:31;100362.88;;;5.97
49154;BMP280;49455;52.252;9.124;2023-02-15T20:18:31;100358.34;;;6.07
49154;BMP280;49455;52.252;9.124;2023-02-15T20:23:35;100366.63;;;6.18
49154;BMP280;49455;52.252;9.124;2023-02-15T20:28:35;100363.47;;;6.07
49154;BMP280;49455;52.252;9.124;2023-02-15T20:33:36;100374.56;;;5.92
49154;BMP280;49455;52.252;9.124;2023-02-15T20:38:36;100375.84;;;6.00
49154;BMP280;49455;52.252;9.124;2023-02-15T20:43:38;100375.47;;;6.08
49154;BMP280;49455;52.252;9.124;2023-02-15T20:48:39;100375.69;;;6.27
49154;BMP280;49455;52.252;9.124;2023-02-15T20:53:39;100387.25;;;6.35
49154;BMP280;49455;52.252;9.124;2023-02-15T20:58:40;100385.91;;;6.11
49154;BMP280;49455;52.252;9.124;2023-02-15T21:03:40;100381.59;;;6.10
49154;BMP280;49455;52.252;9.124;2023-02-15T21:08:41;100381.88;;;6.01
49154;BMP280;49455;52.252;9.124;2023-02-15T21:13:41;100374.59;;;5.78
49154;BMP280;49455;52.252;9.124;2023-02-15T21:18:42;100368.31;;;5.73
49154;BMP280;49455;52.252;9.124;2023-02-15T21:23:43;100370.41;;;5.66
49154;BMP280;49455;52.252;9.124;2023-02-15T21:28:43;100379.88;;;5.52
49154;BMP280;49455;52.252;9.124;2023-02-15T21:33:44;100376.72;;;5.42
49154;BMP280;49455;52.252;9.124;2023-02-15T21:38:44;100383.69;;;5.30
49154;BMP280;49455;52.252;9.124;2023-02-15T21:43:45;100388.94;;;5.17
49154;BMP280;49455;52.252;9.124;2023-02-15T21:48:46;100396.69;;;5.19
49154;BMP280;49455;52.252;9.124;2023-02-15T21:53:46;100401.63;;;5.30
49154;BMP280;49455;52.252;9.124;2023-02-15T21:58:47;100413.22;;;5.38
49154;BMP280;49455;52.252;9.124;2023-02-15T22:03:48;100415.44;;;5.75
49154;BMP280;49455;52.252;9.124;2023-02-15T22:08:49;100413.41;;;5.84
49154;BMP280;49455;52.252;9.124;2023-02-15T22:13:49;100402.59;;;5.89
49154;BMP280;49455;52.252;9.124;2023-02-15T22:18:50;100389.94;;;5.92
49154;BMP280;49455;52.252;9.124;2023-02-15T22:23:50;100387.47;;;5.94
49154;BMP280;49455;52.252;9.124;2023-02-15T22:28:51;100401.19;;;5.94
49154;BMP280;49455;52.252;9.124;2023-02-15T22:33:51;100395.44;;;5.84
49154;BMP280;49455;52.252;9.124;2023-02-15T22:38:53;100405.88;;;5.87
49154;BMP280;49455;52.252;9.124;2023-02-15T22:43:53;100404.56;;;5.93
49154;BMP280;49455;52.252;9.124;2023-02-15T22:48:54;100401.25;;;5.96
49154;BMP280;49455;52.252;9.124;2023-02-15T22:53:54;100401.63;;;5.87
49154;BMP280;49455;52.252;9.124;2023-02-15T22:58:58;100401.13;;;5.78
49154;BMP280;49455;52.252;9.124;2023-02-15T23:04:00;100405.03;;;5.72
49154;BMP280;49455;52.252;9.124;2023-02-15T23:09:00;100405.88;;;5.44
49154;BMP280;49455;52.252;9.124;2023-02-15T23:14:01;100396.84;;;5.36
49154;BMP280;49455;52.252;9.124;2023-02-15T23:19:01;100404.53;;;5.22
49154;BMP280;49455;52.252;9.124;2023-02-15T23:24:23;100395.63;;;5.01
49154;BMP280;49455;52.252;9.124;2023-02-15T23:29:25;100400.75;;;5.01
49154;BMP280;49455;52.252;9.124;2023-02-15T23:34:27;100395.22;;;4.81
49154;BMP280;49455;52.252;9.124;2023-02-15T23:39:28;100383.94;;;4.92
49154;BMP280;49455;52.252;9.124;2023-02-15T23:44:29;100387.84;;;5.00
49154;BMP280;49455;52.252;9.124;2023-02-15T23:49:30;100385.38;;;5.01
49154;BMP280;49455;52.252;9.124;2023-02-15T23:54:30;100377.88;;;5.04
49154;BMP280;49455;52.252;9.124;2023-02-15T23:59:31;100366.81;;;5.05
